sensor_id;sensor_type;location;lat;lon;timestamp;P1;durP1;ratioP1;P2;durP2;ratioP2
51738;SDS011;37815;52.692;6.226;2023-06-10T00:01:45;4.68;;;3.10;;
51738;SDS011;37815;52.692;6.226;2023-06-10T00:06:49;5.40;;;3.03;;
51738;SDS011;37815;52.692;6.226;2023-06-10T00:11:50;4.55;;;2.92;;
51738;SDS011;37815;52.692;6.226;2023-06-10T00:16:51;5.15;;;2.90;;
51738;SDS011;37815;52.692;6.226;2023-06-10T00:21:52;5.45;;;3.33;;
51738;SDS011;37815;52.692;6.226;2023-06-10T00:26:53;4.68;;;3.03;;
51738;SDS011;37815;52.692;6.226;2023-06-10T00:31:53;4.18;;;3.10;;
51738;SDS011;37815;52.692;6.226;2023-06-10T00:36:57;4.10;;;2.67;;
51738;SDS011;37815;52.692;6.226;2023-06-10T00:41:58;5.18;;;2.90;;
51738;SDS011;37815;52.692;6.226;2023-06-10T00:46:59;5.45;;;3.10;;
51738;SDS011;37815;52.692;6.226;2023-06-10T00:52:00;4.57;;;2.70;;
51738;SDS011;37815;52.692;6.226;2023-06-10T00:57:03;5.20;;;3.00;;
51738;SDS011;37815;52.692;6.226;2023-06-10T01:02:05;5.97;;;3.13;;
51738;SDS011;37815;52.692;6.226;2023-06-10T01:17:20;5.70;;;3.10;;
51738;SDS011;37815;52.692;6.226;2023-06-10T01:22:22;5.38;;;2.95;;
51738;SDS011;37815;52.692;6.226;2023-06-10T01:27:26;5.65;;;2.90;;
51738;SDS011;37815;52.692;6.226;2023-06-10T01:32:40;6.40;;;3.10;;
51738;SDS011;37815;52.692;6.226;2023-06-10T01:37:45;4.60;;;2.85;;
51738;SDS011;37815;52.692;6.226;2023-06-10T01:42:47;4.15;;;2.88;;
51738;SDS011;37815;52.692;6.226;2023-06-10T01:47:48;5.25;;;2.65;;
51738;SDS011;37815;52.692;6.226;2023-06-10T01:52:48;6.60;;;3.38;;
51738;SDS011;37815;52.692;6.226;2023-06-10T01:57:49;4.50;;;2.97;;
51738;SDS011;37815;52.692;6.226;2023-06-10T02:02:50;4.97;;;2.90;;
51738;SDS011;37815;52.692;6.226;2023-06-10T02:07:50;4.72;;;3.05;;
51738;SDS011;37815;52.692;6.226;2023-06-10T02:12:51;5.78;;;3.30;;
51738;SDS011;37815;52.692;6.226;2023-06-10T02:17:52;5.13;;;3.30;;
51738;SDS011;37815;52.692;6.226;2023-06-10T02:22:52;5.47;;;3.40;;
51738;SDS011;37815;52.692;6.226;2023-06-10T02:27:53;4.72;;;3.17;;
51738;SDS011;37815;52.692;6.226;2023-06-10T02:32:53;5.97;;;3.35;;
51738;SDS011;37815;52.692;6.226;2023-06-10T02:37:56;4.25;;;3.03;;
51738;SDS011;37815;52.692;6.226;2023-06-10T02:42:57;6.07;;;3.40;;
51738;SDS011;37815;52.692;6.226;2023-06-10T02:47:58;5.85;;;3.60;;
51738;SDS011;37815;52.692;6.226;2023-06-10T02:52:59;5.75;;;3.30;;
51738;SDS011;37815;52.692;6.226;2023-06-10T02:57:59;6.22;;;3.30;;
51738;SDS011;37815;52.692;6.226;2023-06-10T03:03:00;6.55;;;3.75;;
51738;SDS011;37815;52.692;6.226;2023-06-10T03:08:03;7.40;;;3.80;;
51738;SDS011;37815;52.692;6.226;2023-06-10T03:13:04;5.40;;;3.30;;
51738;SDS011;37815;52.692;6.226;2023-06-10T03:18:05;4.60;;;3.42;;
51738;SDS011;37815;52.692;6.226;2023-06-10T03:23:06;5.63;;;3.60;;
51738;SDS011;37815;52.692;6.226;2023-06-10T03:28:08;4.85;;;3.22;;
51738;SDS011;37815;52.692;6.226;2023-06-10T03:33:08;7.40;;;3.83;;
51738;SDS011;37815;52.692;6.226;2023-06-10T03:38:09;5.85;;;3.60;;
51738;SDS011;37815;52.692;6.226;2023-06-10T03:43:09;5.22;;;3.63;;
51738;SDS011;37815;52.692;6.226;2023-06-10T03:48:10;6.65;;;3.50;;
51738;SDS011;37815;52.692;6.226;2023-06-10T03:53:11;7.18;;;3.60;;
51738;SDS011;37815;52.692;6.226;2023-06-10T03:58:11;5.47;;;3.50;;
51738;SDS011;37815;52.692;6.226;2023-06-10T04:03:14;4.65;;;3.42;;
51738;SDS011;37815;52.692;6.226;2023-06-10T04:08:15;5.57;;;3.42;;
51738;SDS011;37815;52.692;6.226;2023-06-10T04:13:16;5.05;;;3.20;;
51738;SDS011;37815;52.692;6.226;2023-06-10T04:18:16;5.47;;;3.72;;
51738;SDS011;37815;52.692;6.226;2023-06-10T04:23:17;8.68;;;3.63;;
51738;SDS011;37815;52.692;6.226;2023-06-10T04:28:18;5.28;;;3.40;;
51738;SDS011;37815;52.692;6.226;2023-06-10T04:33:18;5.55;;;3.28;;
51738;SDS011;37815;52.692;6.226;2023-06-10T04:38:19;4.38;;;3.10;;
51738;SDS011;37815;52.692;6.226;2023-06-10T04:43:20;7.15;;;3.45;;
51738;SDS011;37815;52.692;6.226;2023-06-10T04:48:21;5.78;;;4.10;;
51738;SDS011;37815;52.692;6.226;2023-06-10T04:53:23;5.55;;;3.65;;
51738;SDS011;37815;52.692;6.226;2023-06-10T04:58:24;5.78;;;3.50;;
51738;SDS011;37815;52.692;6.226;2023-06-10T05:03:25;4.63;;;3.10;;
51738;SDS011;37815;52.692;6.226;2023-06-10T05:08:26;6.35;;;3.03;;
51738;SDS011;37815;52.692;6.226;2023-06-10T05:13:27;4.88;;;3.60;;
51738;SDS011;37815;52.692;6.226;2023-06-10T05:18:27;5.63;;;3.58;;
51738;SDS011;37815;52.692;6.226;2023-06-10T05:23:28;7.13;;;3.83;;
51738;SDS011;37815;52.692;6.226;2023-06-10T05:28:29;6.32;;;2.97;;
51738;SDS011;37815;52.692;6.226;2023-06-10T05:33:29;6.03;;;3.17;;
51738;SDS011;37815;52.692;6.226;2023-06-10T05:38:30;5.47;;;3.15;;
51738;SDS011;37815;52.692;6.226;2023-06-10T05:43:31;5.90;;;3.15;;
51738;SDS011;37815;52.692;6.226;2023-06-10T05:48:31;5.57;;;3.28;;
51738;SDS011;37815;52.692;6.226;2023-06-10T05:53:32;4.65;;;2.75;;
51738;SDS011;37815;52.692;6.226;2023-06-10T05:58:33;6.43;;;3.08;;
51738;SDS011;37815;52.692;6.226;2023-06-10T06:03:33;4.13;;;3.05;;
51738;SDS011;37815;52.692;6.226;2023-06-10T06:08:34;5.93;;;3.72;;
51738;SDS011;37815;52.692;6.226;2023-06-10T06:13:34;4.78;;;3.08;;
51738;SDS011;37815;52.692;6.226;2023-06-10T06:18:35;4.97;;;3.08;;
51738;SDS011;37815;52.692;6.226;2023-06-10T06:23:42;4.47;;;2.92;;
51738;SDS011;37815;52.692;6.226;2023-06-10T06:28:42;5.75;;;2.83;;
51738;SDS011;37815;52.692;6.226;2023-06-10T06:33:43;5.07;;;2.65;;
51738;SDS011;37815;52.692;6.226;2023-06-10T06:38:44;7.00;;;3.10;;
51738;SDS011;37815;52.692;6.226;2023-06-10T06:43:45;4.95;;;2.80;;
51738;SDS011;37815;52.692;6.226;2023-06-10T06:48:45;4.95;;;3.10;;
51738;SDS011;37815;52.692;6.226;2023-06-10T06:53:46;4.78;;;2.95;;
51738;SDS011;37815;52.692;6.226;2023-06-10T06:58:46;5.13;;;2.50;;
51738;SDS011;37815;52.692;6.226;2023-06-10T07:03:47;5.95;;;2.95;;
51738;SDS011;37815;52.692;6.226;2023-06-10T07:08:48;3.55;;;2.65;;
51738;SDS011;37815;52.692;6.226;2023-06-10T07:13:50;4.30;;;2.58;;
51738;SDS011;37815;52.692;6.226;2023-06-10T07:18:52;4.03;;;2.55;;
51738;SDS011;37815;52.692;6.226;2023-06-10T07:23:53;4.15;;;2.70;;
51738;SDS011;37815;52.692;6.226;2023-06-10T07:28:53;4.05;;;2.50;;
51738;SDS011;37815;52.692;6.226;2023-06-10T07:33:54;4.45;;;2.95;;
51738;SDS011;37815;52.692;6.226;2023-06-10T07:38:56;5.32;;;2.53;;
51738;SDS011;37815;52.692;6.226;2023-06-10T07:43:57;3.95;;;2.80;;
51738;SDS011;37815;52.692;6.226;2023-06-10T07:48:57;4.55;;;3.03;;
51738;SDS011;37815;52.692;6.226;2023-06-10T07:53:58;4.60;;;2.78;;
51738;SDS011;37815;52.692;6.226;2023-06-10T07:58:58;8.27;;;3.03;;
51738;SDS011;37815;52.692;6.226;2023-06-10T08:03:59;5.05;;;2.60;;
51738;SDS011;37815;52.692;6.226;2023-06-10T08:08:59;6.53;;;2.80;;
51738;SDS011;37815;52.692;6.226;2023-06-10T08:14:00;4.15;;;2.90;;
51738;SDS011;37815;52.692;6.226;2023-06-10T08:19:01;4.38;;;2.40;;
51738;SDS011;37815;52.692;6.226;2023-06-10T08:24:02;5.47;;;2.78;;
51738;SDS011;37815;52.692;6.226;2023-06-10T08:29:03;5.65;;;2.92;;
51738;SDS011;37815;52.692;6.226;2023-06-10T08:34:03;4.13;;;2.70;;
51738;SDS011;37815;52.692;6.226;2023-06-10T08:39:04;7.32;;;3.45;;
51738;SDS011;37815;52.692;6.226;2023-06-10T08:44:09;5.13;;;2.65;;
51738;SDS011;37815;52.692;6.226;2023-06-10T08:49:18;6.47;;;2.92;;
51738;SDS011;37815;52.692;6.226;2023-06-10T08:54:21;4.63;;;2.80;;
51738;SDS011;37815;52.692;6.226;2023-06-10T08:59:25;6.30;;;2.75;;
51738;SDS011;37815;52.692;6.226;2023-06-10T09:04:25;4.32;;;2.85;;
51738;SDS011;37815;52.692;6.226;2023-06-10T09:09:27;5.60;;;3.47;;
51738;SDS011;37815;52.692;6.226;2023-06-10T09:14:30;4.22;;;2.60;;
51738;SDS011;37815;52.692;6.226;2023-06-10T09:19:31;6.40;;;2.85;;
51738;SDS011;37815;52.692;6.226;2023-06-10T09:24:32;4.40;;;3.00;;
51738;SDS011;37815;52.692;6.226;2023-06-10T09:29:52;3.95;;;2.45;;
51738;SDS011;37815;52.692;6.226;2023-06-10T09:34:54;5.55;;;2.63;;
51738;SDS011;37815;52.692;6.226;2023-06-10T09:40:02;7.68;;;3.45;;
51738;SDS011;37815;52.692;6.226;2023-06-10T09:45:06;4.13;;;2.40;;
51738;SDS011;37815;52.692;6.226;2023-06-10T09:50:07;7.28;;;3.45;;
51738;SDS011;37815;52.692;6.226;2023-06-10T09:55:09;3.90;;;2.55;;
51738;SDS011;37815;52.692;6.226;2023-06-10T10:00:12;3.72;;;2.78;;
51738;SDS011;37815;52.692;6.226;2023-06-10T10:05:18;5.78;;;2.90;;
51738;SDS011;37815;52.692;6.226;2023-06-10T10:10:20;5.00;;;3.00;;
51738;SDS011;37815;52.692;6.226;2023-06-10T10:15:21;6.30;;;2.90;;
51738;SDS011;37815;52.692;6.226;2023-06-10T10:20:26;4.63;;;3.15;;
51738;SDS011;37815;52.692;6.226;2023-06-10T10:25:29;4.05;;;2.90;;
51738;SDS011;37815;52.692;6.226;2023-06-10T10:30:37;5.63;;;2.78;;
51738;SDS011;37815;52.692;6.226;2023-06-10T10:35:45;5.45;;;3.20;;
51738;SDS011;37815;52.692;6.226;2023-06-10T10:40:47;4.47;;;3.05;;
51738;SDS011;37815;52.692;6.226;2023-06-10T10:46:08;4.45;;;3.03;;
51738;SDS011;37815;52.692;6.226;2023-06-10T10:51:13;7.00;;;3.40;;
51738;SDS011;37815;52.692;6.226;2023-06-10T10:56:16;4.28;;;2.92;;
51738;SDS011;37815;52.692;6.226;2023-06-10T11:01:21;4.68;;;3.30;;
51738;SDS011;37815;52.692;6.226;2023-06-10T11:06:21;5.88;;;3.17;;
51738;SDS011;37815;52.692;6.226;2023-06-10T11:11:25;5.32;;;3.45;;
51738;SDS011;37815;52.692;6.226;2023-06-10T11:16:28;5.60;;;3.67;;
51738;SDS011;37815;52.692;6.226;2023-06-10T11:21:29;3.85;;;2.75;;
51738;SDS011;37815;52.692;6.226;2023-06-10T11:26:30;3.95;;;2.95;;
51738;SDS011;37815;52.692;6.226;2023-06-10T11:31:41;4.88;;;3.30;;
51738;SDS011;37815;52.692;6.226;2023-06-10T11:36:48;5.72;;;3.20;;
51738;SDS011;37815;52.692;6.226;2023-06-10T11:41:49;4.70;;;3.10;;
51738;SDS011;37815;52.692;6.226;2023-06-10T11:46:51;5.07;;;3.03;;
51738;SDS011;37815;52.692;6.226;2023-06-10T11:51:52;4.40;;;3.00;;
51738;SDS011;37815;52.692;6.226;2023-06-10T11:56:57;4.60;;;3.40;;
51738;SDS011;37815;52.692;6.226;2023-06-10T12:01:59;4.97;;;3.25;;
51738;SDS011;37815;52.692;6.226;2023-06-10T12:07:00;5.45;;;3.55;;
51738;SDS011;37815;52.692;6.226;2023-06-10T12:12:01;4.15;;;3.10;;
51738;SDS011;37815;52.692;6.226;2023-06-10T12:17:06;4.40;;;3.00;;
51738;SDS011;37815;52.692;6.226;2023-06-10T12:22:06;4.90;;;3.35;;
51738;SDS011;37815;52.692;6.226;2023-06-10T12:27:10;4.70;;;3.20;;
51738;SDS011;37815;52.692;6.226;2023-06-10T12:32:12;5.05;;;3.40;;
51738;SDS011;37815;52.692;6.226;2023-06-10T12:37:15;4.78;;;2.95;;
51738;SDS011;37815;52.692;6.226;2023-06-10T12:42:17;3.67;;;3.20;;
51738;SDS011;37815;52.692;6.226;2023-06-10T12:47:28;5.70;;;3.30;;
51738;SDS011;37815;52.692;6.226;2023-06-10T12:52:32;6.05;;;3.28;;
51738;SDS011;37815;52.692;6.226;2023-06-10T12:57:32;5.38;;;3.28;;
51738;SDS011;37815;52.692;6.226;2023-06-10T13:02:33;3.58;;;2.60;;
51738;SDS011;37815;52.692;6.226;2023-06-10T13:07:34;5.00;;;2.97;;
51738;SDS011;37815;52.692;6.226;2023-06-10T13:12:35;3.60;;;2.47;;
51738;SDS011;37815;52.692;6.226;2023-06-10T13:17:36;3.35;;;2.55;;
51738;SDS011;37815;52.692;6.226;2023-06-10T13:22:37;3.35;;;2.53;;
51738;SDS011;37815;52.692;6.226;2023-06-10T13:27:38;5.03;;;2.63;;
51738;SDS011;37815;52.692;6.226;2023-06-10T13:32:39;4.35;;;2.63;;
51738;SDS011;37815;52.692;6.226;2023-06-10T13:37:39;4.75;;;3.00;;
51738;SDS011;37815;52.692;6.226;2023-06-10T13:42:40;3.00;;;2.30;;
51738;SDS011;37815;52.692;6.226;2023-06-10T13:47:41;4.18;;;2.35;;
51738;SDS011;37815;52.692;6.226;2023-06-10T13:52:42;3.10;;;2.20;;
51738;SDS011;37815;52.692;6.226;2023-06-10T13:57:43;4.22;;;2.40;;
51738;SDS011;37815;52.692;6.226;2023-06-10T14:02:43;3.22;;;2.38;;
51738;SDS011;37815;52.692;6.226;2023-06-10T14:07:44;3.83;;;2.35;;
51738;SDS011;37815;52.692;6.226;2023-06-10T14:12:45;3.88;;;2.60;;
51738;SDS011;37815;52.692;6.226;2023-06-10T14:17:46;2.95;;;2.20;;
51738;SDS011;37815;52.692;6.226;2023-06-10T14:22:47;3.55;;;2.17;;
51738;SDS011;37815;52.692;6.226;2023-06-10T14:27:47;4.45;;;2.08;;
51738;SDS011;37815;52.692;6.226;2023-06-10T14:32:48;3.60;;;2.38;;
51738;SDS011;37815;52.692;6.226;2023-06-10T14:37:48;2.50;;;2.10;;
51738;SDS011;37815;52.692;6.226;2023-06-10T14:42:49;3.72;;;2.05;;
51738;SDS011;37815;52.692;6.226;2023-06-10T14:47:50;3.65;;;2.10;;
51738;SDS011;37815;52.692;6.226;2023-06-10T14:52:50;3.88;;;2.20;;
51738;SDS011;37815;52.692;6.226;2023-06-10T14:57:51;3.63;;;2.40;;
51738;SDS011;37815;52.692;6.226;2023-06-10T15:02:52;3.40;;;2.15;;
51738;SDS011;37815;52.692;6.226;2023-06-10T15:07:55;2.67;;;2.00;;
51738;SDS011;37815;52.692;6.226;2023-06-10T15:12:56;2.97;;;2.00;;
51738;SDS011;37815;52.692;6.226;2023-06-10T15:17:57;3.90;;;1.98;;
51738;SDS011;37815;52.692;6.226;2023-06-10T15:22:58;2.83;;;2.13;;
51738;SDS011;37815;52.692;6.226;2023-06-10T15:27:58;2.65;;;1.80;;
51738;SDS011;37815;52.692;6.226;2023-06-10T15:32:59;2.72;;;1.98;;
51738;SDS011;37815;52.692;6.226;2023-06-10T15:37:59;2.75;;;2.17;;
51738;SDS011;37815;52.692;6.226;2023-06-10T15:43:00;2.92;;;2.15;;
51738;SDS011;37815;52.692;6.226;2023-06-10T15:48:01;4.18;;;1.88;;
51738;SDS011;37815;52.692;6.226;2023-06-10T15:53:01;3.33;;;2.03;;
51738;SDS011;37815;52.692;6.226;2023-06-10T15:58:02;3.70;;;2.08;;
51738;SDS011;37815;52.692;6.226;2023-06-10T16:03:04;3.97;;;2.20;;
51738;SDS011;37815;52.692;6.226;2023-06-10T16:08:04;3.13;;;2.05;;
51738;SDS011;37815;52.692;6.226;2023-06-10T16:13:05;2.28;;;1.92;;
51738;SDS011;37815;52.692;6.226;2023-06-10T16:18:06;3.17;;;2.10;;
51738;SDS011;37815;52.692;6.226;2023-06-10T16:23:06;2.78;;;2.05;;
51738;SDS011;37815;52.692;6.226;2023-06-10T16:28:07;3.13;;;2.40;;
51738;SDS011;37815;52.692;6.226;2023-06-10T16:33:08;2.70;;;2.40;;
51738;SDS011;37815;52.692;6.226;2023-06-10T16:38:08;2.40;;;2.20;;
51738;SDS011;37815;52.692;6.226;2023-06-10T16:43:09;3.38;;;2.30;;
51738;SDS011;37815;52.692;6.226;2023-06-10T16:48:10;2.28;;;2.05;;
51738;SDS011;37815;52.692;6.226;2023-06-10T16:53:10;3.65;;;2.40;;
51738;SDS011;37815;52.692;6.226;2023-06-10T16:58:11;3.67;;;2.72;;
51738;SDS011;37815;52.692;6.226;2023-06-10T17:03:12;3.63;;;2.47;;
51738;SDS011;37815;52.692;6.226;2023-06-10T17:08:13;3.95;;;2.83;;
51738;SDS011;37815;52.692;6.226;2023-06-10T17:13:13;3.08;;;2.40;;
51738;SDS011;37815;52.692;6.226;2023-06-10T17:18:14;2.72;;;2.20;;
51738;SDS011;37815;52.692;6.226;2023-06-10T17:23:14;3.13;;;2.50;;
51738;SDS011;37815;52.692;6.226;2023-06-10T17:28:15;2.47;;;2.15;;
51738;SDS011;37815;52.692;6.226;2023-06-10T17:33:16;3.17;;;2.35;;
51738;SDS011;37815;52.692;6.226;2023-06-10T17:38:18;4.18;;;2.20;;
51738;SDS011;37815;52.692;6.226;2023-06-10T17:43:21;3.53;;;2.40;;
51738;SDS011;37815;52.692;6.226;2023-06-10T17:48:21;3.08;;;2.50;;
51738;SDS011;37815;52.692;6.226;2023-06-10T17:53:22;2.90;;;2.10;;
51738;SDS011;37815;52.692;6.226;2023-06-10T17:58:22;3.10;;;2.45;;
51738;SDS011;37815;52.692;6.226;2023-06-10T18:03:23;3.47;;;2.83;;
51738;SDS011;37815;52.692;6.226;2023-06-10T18:08:26;3.45;;;2.25;;
51738;SDS011;37815;52.692;6.226;2023-06-10T18:13:28;4.10;;;2.35;;
51738;SDS011;37815;52.692;6.226;2023-06-10T18:18:28;3.10;;;2.50;;
51738;SDS011;37815;52.692;6.226;2023-06-10T18:23:29;4.40;;;2.65;;
51738;SDS011;37815;52.692;6.226;2023-06-10T18:28:30;2.92;;;2.30;;
51738;SDS011;37815;52.692;6.226;2023-06-10T18:33:31;3.33;;;2.30;;
51738;SDS011;37815;52.692;6.226;2023-06-10T18:38:33;4.47;;;2.50;;
51738;SDS011;37815;52.692;6.226;2023-06-10T18:43:33;4.68;;;2.38;;
51738;SDS011;37815;52.692;6.226;2023-06-10T18:48:34;3.55;;;2.47;;
51738;SDS011;37815;52.692;6.226;2023-06-10T18:53:35;3.55;;;2.50;;
51738;SDS011;37815;52.692;6.226;2023-06-10T18:58:35;3.72;;;2.55;;
51738;SDS011;37815;52.692;6.226;2023-06-10T19:03:36;2.72;;;2.25;;
51738;SDS011;37815;52.692;6.226;2023-06-10T19:08:36;3.55;;;2.63;;
51738;SDS011;37815;52.692;6.226;2023-06-10T19:13:37;3.47;;;2.33;;
51738;SDS011;37815;52.692;6.226;2023-06-10T19:18:38;3.53;;;2.70;;
51738;SDS011;37815;52.692;6.226;2023-06-10T19:23:38;4.00;;;2.30;;
51738;SDS011;37815;52.692;6.226;2023-06-10T19:28:39;4.65;;;2.40;;
51738;SDS011;37815;52.692;6.226;2023-06-10T19:33:40;3.10;;;2.45;;
51738;SDS011;37815;52.692;6.226;2023-06-10T19:38:40;4.00;;;2.33;;
51738;SDS011;37815;52.692;6.226;2023-06-10T19:43:41;2.95;;;2.28;;
51738;SDS011;37815;52.692;6.226;2023-06-10T19:48:42;2.65;;;2.25;;
51738;SDS011;37815;52.692;6.226;2023-06-10T19:53:43;2.90;;;2.10;;
51738;SDS011;37815;52.692;6.226;2023-06-10T19:58:45;2.95;;;2.50;;
51738;SDS011;37815;52.692;6.226;2023-06-10T20:03:46;2.67;;;2.28;;
51738;SDS011;37815;52.692;6.226;2023-06-10T20:08:47;2.80;;;2.10;;
51738;SDS011;37815;52.692;6.226;2023-06-10T20:13:47;4.00;;;2.38;;
51738;SDS011;37815;52.692;6.226;2023-06-10T20:18:51;2.72;;;2.50;;
51738;SDS011;37815;52.692;6.226;2023-06-10T20:23:52;4.07;;;3.10;;
51738;SDS011;37815;52.692;6.226;2023-06-10T20:28:52;2.97;;;1.90;;
51738;SDS011;37815;52.692;6.226;2023-06-10T20:33:54;3.53;;;2.30;;
51738;SDS011;37815;52.692;6.226;2023-06-10T20:38:55;2.70;;;2.13;;
51738;SDS011;37815;52.692;6.226;2023-06-10T20:43:55;3.40;;;2.38;;
51738;SDS011;37815;52.692;6.226;2023-06-10T20:48:57;3.13;;;2.22;;
51738;SDS011;37815;52.692;6.226;2023-06-10T20:54:01;2.55;;;2.25;;
51738;SDS011;37815;52.692;6.226;2023-06-10T20:59:01;2.40;;;2.03;;
51738;SDS011;37815;52.692;6.226;2023-06-10T21:04:02;2.58;;;2.30;;
51738;SDS011;37815;52.692;6.226;2023-06-10T21:09:02;3.28;;;2.47;;
51738;SDS011;37815;52.692;6.226;2023-06-10T21:14:03;3.28;;;2.60;;
51738;SDS011;37815;52.692;6.226;2023-06-10T21:19:04;2.88;;;2.40;;
51738;SDS011;37815;52.692;6.226;2023-06-10T21:24:05;3.88;;;2.55;;
51738;SDS011;37815;52.692;6.226;2023-06-10T21:29:06;4.03;;;2.80;;
51738;SDS011;37815;52.692;6.226;2023-06-10T21:34:06;2.83;;;2.25;;
51738;SDS011;37815;52.692;6.226;2023-06-10T21:39:07;2.83;;;2.47;;
51738;SDS011;37815;52.692;6.226;2023-06-10T21:44:08;3.50;;;2.55;;
51738;SDS011;37815;52.692;6.226;2023-06-10T21:49:08;3.30;;;2.20;;
51738;SDS011;37815;52.692;6.226;2023-06-10T21:54:09;3.67;;;2.33;;
51738;SDS011;37815;52.692;6.226;2023-06-10T21:59:09;3.00;;;2.33;;
51738;SDS011;37815;52.692;6.226;2023-06-10T22:04:10;3.92;;;2.50;;
51738;SDS011;37815;52.692;6.226;2023-06-10T22:09:11;3.53;;;2.55;;
51738;SDS011;37815;52.692;6.226;2023-06-10T22:14:11;3.83;;;2.53;;
51738;SDS011;37815;52.692;6.226;2023-06-10T22:19:13;3.65;;;2.47;;
51738;SDS011;37815;52.692;6.226;2023-06-10T22:24:17;4.65;;;3.28;;
51738;SDS011;37815;52.692;6.226;2023-06-10T22:29:18;3.58;;;2.33;;
51738;SDS011;37815;52.692;6.226;2023-06-10T22:34:18;2.92;;;2.30;;
51738;SDS011;37815;52.692;6.226;2023-06-10T22:39:19;3.47;;;2.65;;
51738;SDS011;37815;52.692;6.226;2023-06-10T22:44:20;4.70;;;2.92;;
51738;SDS011;37815;52.692;6.226;2023-06-10T22:49:20;4.35;;;2.70;;
51738;SDS011;37815;52.692;6.226;2023-06-10T22:54:27;3.53;;;2.33;;
51738;SDS011;37815;52.692;6.226;2023-06-10T22:59:28;2.88;;;2.28;;
51738;SDS011;37815;52.692;6.226;2023-06-10T23:04:29;3.47;;;2.47;;
51738;SDS011;37815;52.692;6.226;2023-06-10T23:09:29;4.90;;;2.58;;
51738;SDS011;37815;52.692;6.226;2023-06-10T23:14:30;3.63;;;2.33;;
51738;SDS011;37815;52.692;6.226;2023-06-10T23:19:31;3.47;;;2.42;;
51738;SDS011;37815;52.692;6.226;2023-06-10T23:24:31;4.88;;;2.60;;
51738;SDS011;37815;52.692;6.226;2023-06-10T23:29:32;3.53;;;2.40;;
51738;SDS011;37815;52.692;6.226;2023-06-10T23:34:33;3.20;;;2.45;;
51738;SDS011;37815;52.692;6.226;2023-06-10T23:39:33;5.45;;;2.72;;
51738;SDS011;37815;52.692;6.226;2023-06-10T23:44:34;3.33;;;2.70;;
51738;SDS011;37815;52.692;6.226;2023-06-10T23:49:34;3.67;;;2.40;;
51738;SDS011;37815;52.692;6.226;2023-06-10T23:54:35;3.53;;;2.20;;
51738;SDS011;37815;52.692;6.226;2023-06-10T23:59:36;3.90;;;2.65;;
